Time;durP1;ratioP1;P1;durP2;ratioP2;P2;SDS_P1;SDS_P2;PMS_P1;PMS_P2;Temp;Humidity;BMP_temperature;BMP_pressure;BME280_temperature;BME280_humidity;BME280_pressure;Samples;Min_cycle;Max_cycle;Signal;HPM_P1;HPM_P2
2023/02/18 00:00:13;;;;;;;;;;;;;;;;;;1030896;28;19910;-56
2023/02/18 00:00:44;;;;;;;;;;;;;;;;;;1031199;28;19916;-55
2023/02/18 00:01:15;;;;;;;;;;;;;;;;;;1031003;28;19980;-56
2023/02/18 00:01:46;;;;;;;;;;;;;;;;;;1031335;28;19910;-56
2023/02/18 00:02:16;;;;;;;;;;;;;;;;;;1030649;28;19997;-56
2023/02/18 00:02:47;;;;;;;;;;;;;;;;;;1029588;28;19910;-55
2023/02/18 00:03:18;;;;;;;;;;;;;;;;;;1026991;28;19910;-55
2023/02/18 00:03:49;;;;;;;;;;;;;;;;;;1027055;28;20008;-56
2023/02/18 00:04:20;;;;;;;;;;;;;;;;;;1030503;28;19910;-55
2023/02/18 00:04:51;;;;;;;;;;;;;;;;;;1029213;28;20670;-56
2023/02/18 00:05:22;;;;;;;;;;;;;;;;;;1027116;28;19941;-56
2023/02/18 00:05:53;;;;;;;;;;;;;;;;;;1029421;28;20386;-55
2023/02/18 00:06:24;;;;;;;;;;;;;;;;;;1030831;28;19909;-56
2023/02/18 00:06:54;;;;;;;;;;;;;;;;;;1031057;28;19905;-56
2023/02/18 00:07:25;;;;;;;;;;;;;;;;;;1030848;28;19964;-55
2023/02/18 00:07:56;;;;;;;;;;;;;;;;;;1031085;28;20345;-55
2023/02/18 00:08:27;;;;;;;;;;;;;;;;;;1030947;28;20076;-55
2023/02/18 00:09:00;;;;;;;;;;;;;;;;;;1031058;28;20474;-56
2023/02/18 00:09:31;;;;;;;;;;;;;;;;;;1026943;28;19956;-56
2023/02/18 00:10:02;;;;;;;;;;;;;;;;;;1026723;28;19906;-56
2023/02/18 00:10:33;;;;;;;;;;;;;;;;;;1026398;28;19906;-56
2023/02/18 00:11:04;;;;;;;;;;;;;;;;;;1029765;28;19909;-55
2023/02/18 00:11:35;;;;;;;;;;;;;;;;;;1030390;28;20352;-56
2023/02/18 00:12:06;;;;;;;;;;;;;;;;;;1027246;28;19906;-55
2023/02/18 00:12:36;;;;;;;;;;;;;;;;;;1028478;28;20362;-56
2023/02/18 00:13:07;;;;;;;;;;;;;;;;;;1028797;28;19910;-55
2023/02/18 00:13:38;;;;;;;;;;;;;;;;;;1026980;28;20596;-56
2023/02/18 00:14:09;;;;;;;;;;;;;;;;;;1027437;28;19914;-56
2023/02/18 00:14:40;;;;;;;;;;;;;;;;;;1031147;28;20428;-55
2023/02/18 00:15:11;;;;;;;;;;;;;;;;;;1031187;28;19910;-55
2023/02/18 00:15:42;;;;;;;;;;;;;;;;;;1030996;28;20419;-56
2023/02/18 00:16:12;;;;;;;;;;;;;;;;;;1030847;28;19910;-56
2023/02/18 00:16:43;;;;;;;;;;;;;;;;;;1031172;28;19910;-55
2023/02/18 00:17:14;;;;;;;;;;;;;;;;;;1030959;28;19910;-56
2023/02/18 00:17:45;;;;;;;;;;;;;;;;;;1031027;28;19909;-56
2023/02/18 00:18:16;;;;;;;;;;;;;;;;;;1030941;28;19913;-56
2023/02/18 00:18:47;;;;;;;;;;;;;;;;;;1031208;28;19952;-56
2023/02/18 00:19:18;;;;;;;;;;;;;;;;;;1030842;28;19909;-55
2023/02/18 00:19:48;;;;;;;;;;;;;;;;;;1027925;28;20385;-55
2023/02/18 00:20:19;;;;;;;;;;;;;;;;;;1026947;28;19910;-56
2023/02/18 00:20:50;;;;;;;;;;;;;;;;;;1026605;28;19972;-55
2023/02/18 00:21:21;;;;;;;;;;;;;;;;;;1030548;28;19916;-55
2023/02/18 00:21:52;;;;;;;;;;;;;;;;;;1030666;28;19909;-55
2023/02/18 00:22:23;;;;;;;;;;;;;;;;;;1030504;28;20025;-56
2023/02/18 00:22:54;;;;;;;;;;;;;;;;;;1030669;28;19910;-55
2023/02/18 00:23:24;;;;;;;;;;;;;;;;;;1030614;28;19979;-54
2023/02/18 00:23:55;;;;;;;;;;;;;;;;;;1031169;28;19985;-55
2023/02/18 00:24:26;;;;;;;;;;;;;;;;;;1030851;28;19909;-55
2023/02/18 00:24:57;;;;;;;;;;;;;;;;;;1031000;28;19910;-54
2023/02/18 00:25:28;;;;;;;;;;;;;;;;;;1031050;28;20537;-55
2023/02/18 00:25:59;;;;;;;;;;;;;;;;;;1031115;28;19910;-55
2023/02/18 00:26:30;;;;;;;;;;;;;;;;;;1030922;28;20555;-55
2023/02/18 00:27:01;;;;;;;;;;;;;;;;;;1031133;28;20632;-55
2023/02/18 00:27:32;;;;;;;;;;;;;;;;;;1030832;28;20000;-55
2023/02/18 00:28:03;;;;;;;;;;;;;;;;;;1028228;28;19910;-55
2023/02/18 00:28:33;;;;;;;;;;;;;;;;;;1028658;28;19917;-55
2023/02/18 00:29:04;;;;;;;;;;;;;;;;;;1031087;28;19996;-55
2023/02/18 00:29:35;;;;;;;;;;;;;;;;;;1030829;28;19910;-55
2023/02/18 00:30:06;;;;;;;;;;;;;;;;;;1031188;28;19956;-55
2023/02/18 00:30:37;;;;;;;;;;;;;;;;;;1030892;28;20024;-55
2023/02/18 00:31:08;;;;;;;;;;;;;;;;;;1030865;28;19910;-56
2023/02/18 00:31:39;;;;;;;;;;;;;;;;;;1031453;28;19913;-55
2023/02/18 00:32:10;;;;;;;;;;;;;;;;;;1031445;28;19913;-55
2023/02/18 00:32:41;;;;;;;;;;;;;;;;;;1031539;28;19910;-55
2023/02/18 00:33:12;;;;;;;;;;;;;;;;;;1031651;28;19906;-55
2023/02/18 00:33:42;;;;;;;;;;;;;;;;;;1031784;28;20019;-55
2023/02/18 00:34:13;;;;;;;;;;;;;;;;;;1031164;28;19981;-55
2023/02/18 00:34:44;;;;;;;;;;;;;;;;;;1030912;28;19909;-56
2023/02/18 00:35:15;;;;;;;;;;;;;;;;;;1031764;28;19921;-55
2023/02/18 00:35:46;;;;;;;;;;;;;;;;;;1031846;28;19909;-55
2023/02/18 00:36:17;;;;;;;;;;;;;;;;;;1030720;28;20004;-56
2023/02/18 00:36:48;;;;;;;;;;;;;;;;;;1027789;28;19937;-56
2023/02/18 00:37:19;;;;;;;;;;;;;;;;;;1027927;28;19957;-55
2023/02/18 00:37:49;;;;;;;;;;;;;;;;;;1027723;28;19910;-55
2023/02/18 00:38:20;;;;;;;;;;;;;;;;;;1031214;28;19910;-55
2023/02/18 00:38:51;;;;;;;;;;;;;;;;;;1031770;28;19939;-55
2023/02/18 00:39:22;;;;;;;;;;;;;;;;;;1031981;28;19910;-55
2023/02/18 00:39:53;;;;;;;;;;;;;;;;;;1031802;28;19928;-55
2023/02/18 00:40:24;;;;;;;;;;;;;;;;;;1031875;28;19909;-55
2023/02/18 00:40:55;;;;;;;;;;;;;;;;;;1031873;28;19940;-55
2023/02/18 00:41:25;;;;;;;;;;;;;;;;;;1030728;28;19953;-55
2023/02/18 00:41:56;;;;;;;;;;;;;;;;;;1027857;28;19910;-55
2023/02/18 00:42:28;;;;;;;;;;;;;;;;;;1027649;28;19910;-55
2023/02/18 00:42:59;;;;;;;;;;;;;;;;;;1027800;28;19917;-55
2023/02/18 00:43:29;;;;;;;;;;;;;;;;;;1031113;28;19925;-56
2023/02/18 00:44:00;;;;;;;;;;;;;;;;;;1027888;28;19972;-56
2023/02/18 00:44:31;;;;;;;;;;;;;;;;;;1027525;28;20130;-56
2023/02/18 00:45:02;;;;;;;;;;;;;;;;;;1030371;28;19913;-54
2023/02/18 00:45:33;;;;;;;;;;;;;;;;;;1031537;28;19912;-55
2023/02/18 00:46:05;;;;;;;;;;;;;;;;;;1031918;28;19945;-54
2023/02/18 00:46:35;;;;;;;;;;;;;;;;;;1031360;28;20419;-55
2023/02/18 00:47:06;;;;;;;;;;;;;;;;;;1031900;28;20548;-55
2023/02/18 00:47:37;;;;;;;;;;;;;;;;;;1031641;28;19910;-54
2023/02/18 00:48:08;;;;;;;;;;;;;;;;;;1031714;28;20357;-55
2023/02/18 00:48:39;;;;;;;;;;;;;;;;;;1031674;28;19910;-56
2023/02/18 00:49:10;;;;;;;;;;;;;;;;;;1031839;28;20381;-55
2023/02/18 00:49:41;;;;;;;;;;;;;;;;;;1031474;28;19921;-54
2023/02/18 00:50:11;;;;;;;;;;;;;;;;;;1031624;28;20345;-55
2023/02/18 00:50:42;;;;;;;;;;;;;;;;;;1031661;28;19910;-55
2023/02/18 00:51:13;;;;;;;;;;;;;;;;;;1030711;28;20377;-55
2023/02/18 00:51:44;;;;;;;;;;;;;;;;;;1031686;28;20416;-54
2023/02/18 00:52:15;;;;;;;;;;;;;;;;;;1031736;28;20277;-55
2023/02/18 00:52:46;;;;;;;;;;;;;;;;;;1031509;28;19948;-55
2023/02/18 00:53:17;;;;;;;;;;;;;;;;;;1031309;28;19910;-54
2023/02/18 00:53:48;;;;;;;;;;;;;;;;;;1031497;28;20424;-55
2023/02/18 00:54:18;;;;;;;;;;;;;;;;;;1031429;28;19910;-55
2023/02/18 00:54:49;;;;;;;;;;;;;;;;;;1031377;28;20397;-55
2023/02/18 00:55:20;;;;;;;;;;;;;;;;;;1031599;28;19917;-55
2023/02/18 00:55:51;;;;;;;;;;;;;;;;;;1027715;28;19910;-55
2023/02/18 00:56:22;;;;;;;;;;;;;;;;;;1027650;28;20017;-54
2023/02/18 00:56:53;;;;;;;;;;;;;;;;;;1027575;28;20012;-55
2023/02/18 00:57:24;;;;;;;;;;;;;;;;;;1030766;28;19909;-56
2023/02/18 00:57:54;;;;;;;;;;;;;;;;;;1031481;28;20319;-56
2023/02/18 00:58:25;;;;;;;;;;;;;;;;;;1031634;28;19941;-55
2023/02/18 00:58:56;;;;;;;;;;;;;;;;;;1031202;28;20254;-54
2023/02/18 00:59:27;;;;;;;;;;;;;;;;;;1031620;28;19920;-54
2023/02/18 00:59:58;;;;;;;;;;;;;;;;;;1031466;28;19932;-55
2023/02/18 01:00:29;;;;;;;;;;;;;;;;;;1031634;28;19941;-56
2023/02/18 01:01:00;;;;;;;;;;;;;;;;;;1031569;28;20218;-56
2023/02/18 01:01:31;;;;;;;;;;;;;;;;;;1031634;28;20008;-58
2023/02/18 01:02:01;;;;;;;;;;;;;;;;;;1031655;28;19917;-55
2023/02/18 01:02:32;;;;;;;;;;;;;;;;;;1031601;28;19956;-55
2023/02/18 01:03:05;;;;;;;;;;;;;;;;;;1031479;28;19944;-55
2023/02/18 01:03:36;;;;;;;;;;;;;;;;;;1031711;28;19910;-55
2023/02/18 01:04:06;;;;;;;;;;;;;;;;;;1031544;28;19960;-56
2023/02/18 01:04:37;;;;;;;;;;;;;;;;;;1031636;28;20288;-54
2023/02/18 01:05:08;;;;;;;;;;;;;;;;;;1031624;28;19910;-54
2023/02/18 01:05:39;;;;;;;;;;;;;;;;;;1031024;28;20451;-54
2023/02/18 01:06:10;;;;;;;;;;;;;;;;;;1031320;28;19928;-55
2023/02/18 01:06:41;;;;;;;;;;;;;;;;;;1031691;28;20396;-57
2023/02/18 01:07:12;;;;;;;;;;;;;;;;;;1031607;28;20469;-56
2023/02/18 01:07:42;;;;;;;;;;;;;;;;;;1031570;28;20545;-57
2023/02/18 01:08:13;;;;;;;;;;;;;;;;;;1031586;28;19912;-54
2023/02/18 01:08:44;;;;;;;;;;;;;;;;;;1031695;28;20316;-54
2023/02/18 01:09:15;;;;;;;;;;;;;;;;;;1031585;28;19910;-54
2023/02/18 01:09:46;;;;;;;;;;;;;;;;;;1031397;28;20313;-56
2023/02/18 01:10:17;;;;;;;;;;;;;;;;;;1031481;28;20224;-57
2023/02/18 01:10:48;;;;;;;;;;;;;;;;;;1031229;28;19905;-55
2023/02/18 01:11:19;;;;;;;;;;;;;;;;;;1031505;28;19914;-57
2023/02/18 01:11:49;;;;;;;;;;;;;;;;;;1031314;28;19992;-54
2023/02/18 01:12:20;;;;;;;;;;;;;;;;;;1031503;28;19917;-55
2023/02/18 01:12:51;;;;;;;;;;;;;;;;;;1031011;28;20409;-55
2023/02/18 01:13:22;;;;;;;;;;;;;;;;;;1027606;28;20020;-55
2023/02/18 01:13:53;;;;;;;;;;;;;;;;;;1027271;28;20634;-55
2023/02/18 01:14:24;;;;;;;;;;;;;;;;;;1029876;28;19917;-55
2023/02/18 01:14:55;;;;;;;;;;;;;;;;;;1031249;28;19941;-56
2023/02/18 01:15:25;;;;;;;;;;;;;;;;;;1031547;28;19909;-54
2023/02/18 01:15:56;;;;;;;;;;;;;;;;;;1031163;28;19916;-56
2023/02/18 01:16:27;;;;;;;;;;;;;;;;;;1031499;28;20310;-55
2023/02/18 01:16:58;;;;;;;;;;;;;;;;;;1031324;28;19973;-55
2023/02/18 01:17:29;;;;;;;;;;;;;;;;;;1031271;28;19953;-55
2023/02/18 01:18:00;;;;;;;;;;;;;;;;;;1031383;28;19913;-55
2023/02/18 01:18:31;;;;;;;;;;;;;;;;;;1031348;28;20318;-55
2023/02/18 01:19:02;;;;;;;;;;;;;;;;;;1031376;28;20219;-55
2023/02/18 01:19:33;;;;;;;;;;;;;;;;;;1031222;28;20013;-55
2023/02/18 01:20:03;;;;;;;;;;;;;;;;;;1031437;28;19916;-54
2023/02/18 01:20:34;;;;;;;;;;;;;;;;;;1029048;28;19972;-54
2023/02/18 01:21:07;;;;;;;;;;;;;;;;;;1028856;28;19910;-54
2023/02/18 01:21:38;;;;;;;;;;;;;;;;;;1031461;28;19914;-55
2023/02/18 01:22:09;;;;;;;;;;;;;;;;;;1031252;28;20001;-54
2023/02/18 01:22:39;;;;;;;;;;;;;;;;;;1031642;28;19921;-55
2023/02/18 01:23:10;;;;;;;;;;;;;;;;;;1031124;28;19909;-55
2023/02/18 01:23:41;;;;;;;;;;;;;;;;;;1031552;28;19909;-55
2023/02/18 01:24:12;;;;;;;;;;;;;;;;;;1031216;28;19910;-56
2023/02/18 01:24:43;;;;;;;;;;;;;;;;;;1031245;28;20013;-55
2023/02/18 01:25:14;;;;;;;;;;;;;;;;;;1027489;28;19909;-55
2023/02/18 01:25:45;;;;;;;;;;;;;;;;;;1027801;28;19960;-55
2023/02/18 01:26:16;;;;;;;;;;;;;;;;;;1029332;28;19929;-55
2023/02/18 01:26:46;;;;;;;;;;;;;;;;;;1031857;28;20337;-55
2023/02/18 01:27:17;;;;;;;;;;;;;;;;;;1031415;28;20353;-54
2023/02/18 01:27:48;;;;;;;;;;;;;;;;;;1031642;28;20024;-56
2023/02/18 01:28:23;;;;;;;;;;;;;;;;;;1030094;28;20427;-56
2023/02/18 01:28:54;;;;;;;;;;;;;;;;;;1031810;28;19910;-55
2023/02/18 01:29:25;;;;;;;;;;;;;;;;;;1031242;28;19916;-55
2023/02/18 01:29:56;;;;;;;;;;;;;;;;;;1031765;28;20008;-56
2023/02/18 01:30:27;;;;;;;;;;;;;;;;;;1031530;28;19921;-55
2023/02/18 01:30:58;;;;;;;;;;;;;;;;;;1031525;28;19993;-55
2023/02/18 01:31:29;;;;;;;;;;;;;;;;;;1031336;28;19910;-55
2023/02/18 01:31:59;;;;;;;;;;;;;;;;;;1031797;28;19917;-55
2023/02/18 01:32:30;;;;;;;;;;;;;;;;;;1031369;28;19910;-54
2023/02/18 01:33:01;;;;;;;;;;;;;;;;;;1031553;28;19916;-56
2023/02/18 01:33:32;;;;;;;;;;;;;;;;;;1031483;28;19952;-55
2023/02/18 01:34:03;;;;;;;;;;;;;;;;;;1031734;28;19909;-55
2023/02/18 01:34:34;;;;;;;;;;;;;;;;;;1031264;28;19952;-54
2023/02/18 01:35:05;;;;;;;;;;;;;;;;;;1031549;28;19940;-55
2023/02/18 01:35:36;;;;;;;;;;;;;;;;;;1031109;28;19909;-56
2023/02/18 01:36:07;;;;;;;;;;;;;;;;;;1031736;28;19913;-55
2023/02/18 01:36:37;;;;;;;;;;;;;;;;;;1031413;28;19917;-55
2023/02/18 01:37:08;;;;;;;;;;;;;;;;;;1031063;28;19910;-55
2023/02/18 01:37:39;;;;;;;;;;;;;;;;;;1027576;28;19910;-54
2023/02/18 01:38:10;;;;;;;;;;;;;;;;;;1029306;28;19997;-56
2023/02/18 01:38:41;;;;;;;;;;;;;;;;;;1031723;28;19909;-55
2023/02/18 01:39:12;;;;;;;;;;;;;;;;;;1031398;28;19964;-55
2023/02/18 01:39:43;;;;;;;;;;;;;;;;;;1031611;28;20384;-55
2023/02/18 01:40:14;;;;;;;;;;;;;;;;;;1031333;28;19961;-55
2023/02/18 01:40:44;;;;;;;;;;;;;;;;;;1031806;28;20561;-55
2023/02/18 01:41:15;;;;;;;;;;;;;;;;;;1031235;28;19914;-55
2023/02/18 01:41:46;;;;;;;;;;;;;;;;;;1031671;28;19921;-55
2023/02/18 01:42:17;;;;;;;;;;;;;;;;;;1030953;28;19910;-55
2023/02/18 01:42:48;;;;;;;;;;;;;;;;;;1031197;28;20101;-54
2023/02/18 01:43:19;;;;;;;;;;;;;;;;;;1030675;28;19922;-55
2023/02/18 01:43:50;;;;;;;;;;;;;;;;;;1028378;28;19910;-55
2023/02/18 01:44:21;;;;;;;;;;;;;;;;;;1026980;28;19910;-54
2023/02/18 01:44:51;;;;;;;;;;;;;;;;;;1028480;28;19940;-54
2023/02/18 01:45:22;;;;;;;;;;;;;;;;;;1031506;28;20416;-55
2023/02/18 01:45:53;;;;;;;;;;;;;;;;;;1031714;28;19909;-55
2023/02/18 01:46:24;;;;;;;;;;;;;;;;;;1031314;28;20020;-55
2023/02/18 01:46:55;;;;;;;;;;;;;;;;;;1031769;28;19921;-55
2023/02/18 01:47:26;;;;;;;;;;;;;;;;;;1031083;28;19914;-55
2023/02/18 01:47:57;;;;;;;;;;;;;;;;;;1031547;28;19917;-55
2023/02/18 01:48:27;;;;;;;;;;;;;;;;;;1031135;28;19913;-55
2023/02/18 01:48:58;;;;;;;;;;;;;;;;;;1031609;28;19910;-55
2023/02/18 01:49:29;;;;;;;;;;;;;;;;;;1031313;28;19916;-56
2023/02/18 01:50:00;;;;;;;;;;;;;;;;;;1031569;28;19916;-56
2023/02/18 01:50:31;;;;;;;;;;;;;;;;;;1031246;28;19910;-55
2023/02/18 01:51:02;;;;;;;;;;;;;;;;;;1031585;28;19914;-54
2023/02/18 01:51:33;;;;;;;;;;;;;;;;;;1031207;28;19910;-55
2023/02/18 01:52:04;;;;;;;;;;;;;;;;;;1030385;28;19922;-56
2023/02/18 01:52:34;;;;;;;;;;;;;;;;;;1027137;28;20376;-55
2023/02/18 01:53:05;;;;;;;;;;;;;;;;;;1027645;28;19910;-54
2023/02/18 01:53:36;;;;;;;;;;;;;;;;;;1030376;28;20005;-55
2023/02/18 01:54:07;;;;;;;;;;;;;;;;;;1031633;28;19944;-55
2023/02/18 01:54:38;;;;;;;;;;;;;;;;;;1031395;28;19916;-54
2023/02/18 01:55:09;;;;;;;;;;;;;;;;;;1031470;28;20081;-55
2023/02/18 01:55:40;;;;;;;;;;;;;;;;;;1029140;28;20076;-56
2023/02/18 01:56:11;;;;;;;;;;;;;;;;;;1027436;28;19949;-54
2023/02/18 01:56:42;;;;;;;;;;;;;;;;;;1027401;28;19917;-55
2023/02/18 01:57:12;;;;;;;;;;;;;;;;;;1029028;28;19917;-54
2023/02/18 01:57:43;;;;;;;;;;;;;;;;;;1031528;28;19941;-54
2023/02/18 01:58:14;;;;;;;;;;;;;;;;;;1031416;28;20547;-56
2023/02/18 01:58:45;;;;;;;;;;;;;;;;;;1031430;28;20004;-55
2023/02/18 01:59:16;;;;;;;;;;;;;;;;;;1031078;28;19920;-55
2023/02/18 01:59:47;;;;;;;;;;;;;;;;;;1031546;28;19909;-55
2023/02/18 02:00:20;;;;;;;;;;;;;;;;;;1031346;28;19910;-55
2023/02/18 02:00:51;;;;;;;;;;;;;;;;;;1031308;28;19957;-56
2023/02/18 02:01:22;;;;;;;;;;;;;;;;;;1031530;28;19918;-56
2023/02/18 02:01:53;;;;;;;;;;;;;;;;;;1031503;28;20576;-56
2023/02/18 02:02:23;;;;;;;;;;;;;;;;;;1031308;28;19955;-55
2023/02/18 02:02:54;;;;;;;;;;;;;;;;;;1031457;28;20542;-55
2023/02/18 02:03:25;;;;;;;;;;;;;;;;;;1031457;28;19909;-56
2023/02/18 02:03:56;;;;;;;;;;;;;;;;;;1031443;28;20547;-56
2023/02/18 02:04:27;;;;;;;;;;;;;;;;;;1031463;28;20883;-55
2023/02/18 02:04:58;;;;;;;;;;;;;;;;;;1031594;28;19948;-56
2023/02/18 02:05:29;;;;;;;;;;;;;;;;;;1031275;28;20557;-56
2023/02/18 02:05:59;;;;;;;;;;;;;;;;;;1031635;28;19916;-55
2023/02/18 02:06:30;;;;;;;;;;;;;;;;;;1031167;28;20369;-55
2023/02/18 02:07:01;;;;;;;;;;;;;;;;;;1028613;28;19914;-56
2023/02/18 02:07:32;;;;;;;;;;;;;;;;;;1029170;28;20333;-56
2023/02/18 02:08:03;;;;;;;;;;;;;;;;;;1031770;28;20097;-56
2023/02/18 02:08:34;;;;;;;;;;;;;;;;;;1031162;28;20380;-56
2023/02/18 02:09:05;;;;;;;;;;;;;;;;;;1028589;28;19913;-56
2023/02/18 02:09:35;;;;;;;;;;;;;;;;;;1031126;28;20278;-55
2023/02/18 02:10:06;;;;;;;;;;;;;;;;;;1031666;28;19964;-55
2023/02/18 02:10:37;;;;;;;;;;;;;;;;;;1031208;28;19909;-56
2023/02/18 02:11:08;;;;;;;;;;;;;;;;;;1031477;28;20387;-55
2023/02/18 02:11:39;;;;;;;;;;;;;;;;;;1031323;28;19965;-55
2023/02/18 02:12:10;;;;;;;;;;;;;;;;;;1031446;28;19913;-56
2023/02/18 02:12:41;;;;;;;;;;;;;;;;;;1031272;28;19937;-56
2023/02/18 02:13:12;;;;;;;;;;;;;;;;;;1028563;28;19925;-56
2023/02/18 02:13:42;;;;;;;;;;;;;;;;;;1027458;28;19914;-56
2023/02/18 02:14:13;;;;;;;;;;;;;;;;;;1028167;28;19993;-55
2023/02/18 02:14:44;;;;;;;;;;;;;;;;;;1031523;28;19928;-56
2023/02/18 02:15:15;;;;;;;;;;;;;;;;;;1031301;28;19941;-56
2023/02/18 02:15:46;;;;;;;;;;;;;;;;;;1031478;28;20762;-55
2023/02/18 02:16:17;;;;;;;;;;;;;;;;;;1031163;28;20004;-57
2023/02/18 02:16:48;;;;;;;;;;;;;;;;;;1031566;28;20207;-56
2023/02/18 02:17:18;;;;;;;;;;;;;;;;;;1031366;28;19932;-55
2023/02/18 02:17:49;;;;;;;;;;;;;;;;;;1031315;28;20578;-56
2023/02/18 02:18:20;;;;;;;;;;;;;;;;;;1031399;28;19905;-54
2023/02/18 02:18:51;;;;;;;;;;;;;;;;;;1031378;28;20310;-55
2023/02/18 02:19:22;;;;;;;;;;;;;;;;;;1031353;28;19912;-56
2023/02/18 02:19:53;;;;;;;;;;;;;;;;;;1031269;28;20311;-55
2023/02/18 02:20:24;;;;;;;;;;;;;;;;;;1031300;28;19906;-56
2023/02/18 02:20:54;;;;;;;;;;;;;;;;;;1030711;28;19996;-56
2023/02/18 02:21:25;;;;;;;;;;;;;;;;;;1027606;28;19978;-56
2023/02/18 02:21:56;;;;;;;;;;;;;;;;;;1027370;28;19950;-55
2023/02/18 02:22:27;;;;;;;;;;;;;;;;;;1027400;28;19906;-56
2023/02/18 02:22:58;;;;;;;;;;;;;;;;;;1030161;28;20021;-56
2023/02/18 02:23:29;;;;;;;;;;;;;;;;;;1030485;28;19933;-55
2023/02/18 02:24:00;;;;;;;;;;;;;;;;;;1027419;28;19906;-56
2023/02/18 02:24:30;;;;;;;;;;;;;;;;;;1028946;28;19912;-55
2023/02/18 02:25:01;;;;;;;;;;;;;;;;;;1031377;28;19987;-55
2023/02/18 02:25:32;;;;;;;;;;;;;;;;;;1031334;28;19928;-56
2023/02/18 02:26:03;;;;;;;;;;;;;;;;;;1031358;28;19959;-55
2023/02/18 02:26:34;;;;;;;;;;;;;;;;;;1031241;28;19920;-55
2023/02/18 02:27:05;;;;;;;;;;;;;;;;;;1031663;28;20020;-55
2023/02/18 02:27:36;;;;;;;;;;;;;;;;;;1031328;28;19905;-56
2023/02/18 02:28:07;;;;;;;;;;;;;;;;;;1031446;28;19909;-56
2023/02/18 02:28:37;;;;;;;;;;;;;;;;;;1029994;28;20325;-56
2023/02/18 02:29:08;;;;;;;;;;;;;;;;;;1031433;28;19913;-55
2023/02/18 02:29:39;;;;;;;;;;;;;;;;;;1031231;28;20302;-56
2023/02/18 02:30:11;;;;;;;;;;;;;;;;;;1031449;28;19993;-55
2023/02/18 02:30:42;;;;;;;;;;;;;;;;;;1031302;28;19906;-56
2023/02/18 02:31:12;;;;;;;;;;;;;;;;;;1031316;28;19960;-55
2023/02/18 02:31:43;;;;;;;;;;;;;;;;;;1031354;28;20077;-56
2023/02/18 02:32:14;;;;;;;;;;;;;;;;;;1031340;28;19917;-56
2023/02/18 02:32:45;;;;;;;;;;;;;;;;;;1031403;28;19910;-56
2023/02/18 02:33:16;;;;;;;;;;;;;;;;;;1031336;28;20004;-56
2023/02/18 02:33:47;;;;;;;;;;;;;;;;;;1031236;28;19984;-55
2023/02/18 02:34:18;;;;;;;;;;;;;;;;;;1031279;28;20428;-55
2023/02/18 02:34:48;;;;;;;;;;;;;;;;;;1031141;28;19910;-55
2023/02/18 02:35:19;;;;;;;;;;;;;;;;;;1031421;28;20346;-54
2023/02/18 02:35:50;;;;;;;;;;;;;;;;;;1031269;28;20008;-55
2023/02/18 02:36:21;;;;;;;;;;;;;;;;;;1031277;28;20452;-55
2023/02/18 02:36:52;;;;;;;;;;;;;;;;;;1031161;28;19909;-55
2023/02/18 02:37:24;;;;;;;;;;;;;;;;;;1031062;28;19941;-55
2023/02/18 02:37:55;;;;;;;;;;;;;;;;;;1030924;28;19910;-55
2023/02/18 02:38:26;;;;;;;;;;;;;;;;;;1028565;28;19952;-55
2023/02/18 02:38:56;;;;;;;;;;;;;;;;;;1026865;28;20365;-55
2023/02/18 02:39:27;;;;;;;;;;;;;;;;;;1027321;28;19917;-53
2023/02/18 02:39:58;;;;;;;;;;;;;;;;;;1029095;28;20417;-54
2023/02/18 02:40:29;;;;;;;;;;;;;;;;;;1027217;28;19910;-55
2023/02/18 02:41:00;;;;;;;;;;;;;;;;;;1027473;28;20724;-56
2023/02/18 02:41:31;;;;;;;;;;;;;;;;;;1028758;28;19997;-55
2023/02/18 02:42:02;;;;;;;;;;;;;;;;;;1031459;28;20781;-55
2023/02/18 02:42:33;;;;;;;;;;;;;;;;;;1031150;28;19910;-56
2023/02/18 02:43:03;;;;;;;;;;;;;;;;;;1031262;28;19917;-55
2023/02/18 02:43:34;;;;;;;;;;;;;;;;;;1030041;28;19992;-55
2023/02/18 02:44:05;;;;;;;;;;;;;;;;;;1031065;28;19932;-55
2023/02/18 02:44:36;;;;;;;;;;;;;;;;;;1031121;28;19917;-55
2023/02/18 02:45:07;;;;;;;;;;;;;;;;;;1031280;28;20048;-56
2023/02/18 02:45:38;;;;;;;;;;;;;;;;;;1030739;28;19910;-56
2023/02/18 02:46:09;;;;;;;;;;;;;;;;;;1031004;28;19910;-56
2023/02/18 02:46:39;;;;;;;;;;;;;;;;;;1030944;28;20005;-56
2023/02/18 02:47:10;;;;;;;;;;;;;;;;;;1030847;28;19909;-55
2023/02/18 02:47:41;;;;;;;;;;;;;;;;;;1031412;28;19909;-54
2023/02/18 02:48:12;;;;;;;;;;;;;;;;;;1031066;28;20028;-55
2023/02/18 02:48:43;;;;;;;;;;;;;;;;;;1031485;28;19941;-55
2023/02/18 02:49:14;;;;;;;;;;;;;;;;;;1031228;28;20353;-54
2023/02/18 02:49:45;;;;;;;;;;;;;;;;;;1031522;28;19910;-56
2023/02/18 02:50:15;;;;;;;;;;;;;;;;;;1031040;28;19964;-55
2023/02/18 02:50:46;;;;;;;;;;;;;;;;;;1031348;28;19909;-56
2023/02/18 02:51:17;;;;;;;;;;;;;;;;;;1031190;28;19929;-56
2023/02/18 02:51:48;;;;;;;;;;;;;;;;;;1031151;28;20115;-55
2023/02/18 02:52:19;;;;;;;;;;;;;;;;;;1031295;28;19910;-56
2023/02/18 02:52:50;;;;;;;;;;;;;;;;;;1031301;28;20012;-55
2023/02/18 02:53:21;;;;;;;;;;;;;;;;;;1028642;28;19914;-53
2023/02/18 02:53:52;;;;;;;;;;;;;;;;;;1030983;28;19913;-56
2023/02/18 02:54:23;;;;;;;;;;;;;;;;;;1031273;28;20004;-55
2023/02/18 02:54:53;;;;;;;;;;;;;;;;;;1031067;28;19906;-56
2023/02/18 02:55:24;;;;;;;;;;;;;;;;;;1031080;28;20183;-56
2023/02/18 02:55:55;;;;;;;;;;;;;;;;;;1027149;28;19917;-55
2023/02/18 02:56:26;;;;;;;;;;;;;;;;;;1027352;28;19993;-54
2023/02/18 02:56:57;;;;;;;;;;;;;;;;;;1027142;28;19910;-56
2023/02/18 02:57:28;;;;;;;;;;;;;;;;;;1029807;28;20493;-55
2023/02/18 02:57:59;;;;;;;;;;;;;;;;;;1030756;28;19909;-55
2023/02/18 02:58:29;;;;;;;;;;;;;;;;;;1030928;28;19913;-55
2023/02/18 02:59:00;;;;;;;;;;;;;;;;;;1030458;28;19910;-55
2023/02/18 02:59:31;;;;;;;;;;;;;;;;;;1031140;28;19909;-55
2023/02/18 03:00:03;;;;;;;;;;;;;;;;;;1031286;28;19984;-55
2023/02/18 03:00:34;;;;;;;;;;;;;;;;;;1031144;28;19910;-55
2023/02/18 03:01:06;;;;;;;;;;;;;;;;;;1031154;28;20182;-55
2023/02/18 03:01:37;;;;;;;;;;;;;;;;;;1031249;28;19909;-56
2023/02/18 03:02:07;;;;;;;;;;;;;;;;;;1031234;28;19910;-57
2023/02/18 03:02:38;;;;;;;;;;;;;;;;;;1031190;28;19916;-55
2023/02/18 03:03:09;;;;;;;;;;;;;;;;;;1031077;28;19976;-54
2023/02/18 03:03:40;;;;;;;;;;;;;;;;;;1031276;28;19916;-54
2023/02/18 03:04:11;;;;;;;;;;;;;;;;;;1030991;28;20040;-55
2023/02/18 03:04:42;;;;;;;;;;;;;;;;;;1031298;28;19909;-55
2023/02/18 03:05:13;;;;;;;;;;;;;;;;;;1031034;28;19933;-55
2023/02/18 03:05:43;;;;;;;;;;;;;;;;;;1031152;28;19910;-55
2023/02/18 03:06:14;;;;;;;;;;;;;;;;;;1030971;28;19917;-56
2023/02/18 03:06:45;;;;;;;;;;;;;;;;;;1031333;28;20354;-55
2023/02/18 03:07:16;;;;;;;;;;;;;;;;;;1030492;28;20032;-56
2023/02/18 03:07:47;;;;;;;;;;;;;;;;;;1030730;28;19958;-58
2023/02/18 03:08:18;;;;;;;;;;;;;;;;;;1029739;28;19906;-57
2023/02/18 03:08:49;;;;;;;;;;;;;;;;;;1030888;28;19996;-55
2023/02/18 03:09:19;;;;;;;;;;;;;;;;;;1030655;28;19906;-56
2023/02/18 03:09:50;;;;;;;;;;;;;;;;;;1028937;28;20427;-56
2023/02/18 03:10:21;;;;;;;;;;;;;;;;;;1030142;28;20008;-56
2023/02/18 03:10:52;;;;;;;;;;;;;;;;;;1031210;28;20647;-55
2023/02/18 03:11:23;;;;;;;;;;;;;;;;;;1031215;28;19912;-57
2023/02/18 03:11:54;;;;;;;;;;;;;;;;;;1031134;28;19906;-56
2023/02/18 03:12:25;;;;;;;;;;;;;;;;;;1031069;28;20028;-56
2023/02/18 03:12:55;;;;;;;;;;;;;;;;;;1030561;28;20396;-56
2023/02/18 03:13:26;;;;;;;;;;;;;;;;;;1027187;28;19953;-56
2023/02/18 03:13:57;;;;;;;;;;;;;;;;;;1028445;28;19912;-54
2023/02/18 03:14:28;;;;;;;;;;;;;;;;;;1031060;28;20919;-55
2023/02/18 03:14:59;;;;;;;;;;;;;;;;;;1031378;28;19913;-55
2023/02/18 03:15:30;;;;;;;;;;;;;;;;;;1031073;28;19937;-55
2023/02/18 03:16:01;;;;;;;;;;;;;;;;;;1031274;28;19976;-56
2023/02/18 03:16:32;;;;;;;;;;;;;;;;;;1029686;28;20667;-55
2023/02/18 03:17:03;;;;;;;;;;;;;;;;;;1027383;28;19906;-56
2023/02/18 03:17:34;;;;;;;;;;;;;;;;;;1026930;28;20448;-56
2023/02/18 03:18:05;;;;;;;;;;;;;;;;;;1027225;28;20365;-56
2023/02/18 03:18:35;;;;;;;;;;;;;;;;;;1031052;28;19933;-56
2023/02/18 03:19:06;;;;;;;;;;;;;;;;;;1031207;28;20000;-56
2023/02/18 03:19:37;;;;;;;;;;;;;;;;;;1031118;28;19912;-55
2023/02/18 03:20:08;;;;;;;;;;;;;;;;;;1031126;28;19935;-56
2023/02/18 03:20:39;;;;;;;;;;;;;;;;;;1030788;28;19996;-56
2023/02/18 03:21:10;;;;;;;;;;;;;;;;;;1031106;28;19996;-55
2023/02/18 03:21:41;;;;;;;;;;;;;;;;;;1031140;28;20485;-55
2023/02/18 03:22:12;;;;;;;;;;;;;;;;;;1031042;28;20404;-55
2023/02/18 03:22:42;;;;;;;;;;;;;;;;;;1031382;28;19941;-55
2023/02/18 03:23:13;;;;;;;;;;;;;;;;;;1030802;28;19905;-56
2023/02/18 03:23:44;;;;;;;;;;;;;;;;;;1031379;28;19905;-55
2023/02/18 03:24:15;;;;;;;;;;;;;;;;;;1031009;28;20016;-54
2023/02/18 03:24:46;;;;;;;;;;;;;;;;;;1028497;28;19909;-56
2023/02/18 03:25:17;;;;;;;;;;;;;;;;;;1027074;28;20124;-56
2023/02/18 03:25:48;;;;;;;;;;;;;;;;;;1027234;28;20177;-56
2023/02/18 03:26:19;;;;;;;;;;;;;;;;;;1026953;28;20691;-54
2023/02/18 03:26:50;;;;;;;;;;;;;;;;;;1027061;28;19941;-56
2023/02/18 03:27:21;;;;;;;;;;;;;;;;;;1027112;28;19929;-55
2023/02/18 03:27:52;;;;;;;;;;;;;;;;;;1027084;28;19906;-56
2023/02/18 03:28:22;;;;;;;;;;;;;;;;;;1027488;28;19913;-55
2023/02/18 03:28:53;;;;;;;;;;;;;;;;;;1031234;28;19992;-56
2023/02/18 03:29:24;;;;;;;;;;;;;;;;;;1031004;28;19937;-55
2023/02/18 03:29:55;;;;;;;;;;;;;;;;;;1031259;28;20615;-55
2023/02/18 03:30:26;;;;;;;;;;;;;;;;;;1030882;28;19989;-56
2023/02/18 03:30:57;;;;;;;;;;;;;;;;;;1031031;28;19906;-56